Time;durP1;ratioP1;P1;durP2;ratioP2;P2;SDS_P1;SDS_P2;PMS_P1;PMS_P2;Temp;Humidity;BMP_temperature;BMP_pressure;BME280_temperature;BME280_humidity;BME280_pressure;Samples;Min_cycle;Max_cycle;Signal;HPM_P1;HPM_P2
2022/07/07 00:00:24;;;;;;;6.30;5.77;;;15.70;99.90;;;;;;5044428;28;20335;-58
2022/07/07 00:02:53;;;;;;;6.50;5.90;;;15.60;99.90;;;;;;5045305;28;20230;-60
2022/07/07 00:05:22;;;;;;;5.70;5.20;;;15.60;99.90;;;;;;5043161;28;20239;-59
2022/07/07 00:07:52;;;;;;;6.43;5.80;;;15.70;99.90;;;;;;5044550;28;20309;-59
2022/07/07 00:10:20;;;;;;;5.63;5.17;;;15.70;99.90;;;;;;5044591;28;20235;-59
2022/07/07 00:12:48;;;;;;;5.40;5.00;;;15.60;99.90;;;;;;5044540;28;20220;-59
2022/07/07 00:15:17;;;;;;;5.70;5.20;;;15.60;99.90;;;;;;5042506;28;20239;-59
2022/07/07 00:17:45;;;;;;;6.00;5.50;;;15.60;99.90;;;;;;5044354;28;20232;-56
2022/07/07 00:20:13;;;;;;;6.13;5.63;;;15.60;99.90;;;;;;5044365;28;20243;-59
2022/07/07 00:22:41;;;;;;;5.43;5.03;;;15.70;99.90;;;;;;5045045;28;20235;-58
2022/07/07 00:25:11;;;;;;;6.03;5.53;;;15.70;99.90;;;;;;5042843;28;20220;-59
2022/07/07 00:27:39;;;;;;;6.23;5.63;;;15.70;99.90;;;;;;5044605;28;20227;-60
2022/07/07 00:30:08;;;;;;;5.83;5.33;;;15.70;99.90;;;;;;5045547;28;20232;-59
2022/07/07 00:32:36;;;;;;;6.63;6.10;;;15.70;99.90;;;;;;5025269;28;20793;-59
2022/07/07 00:35:05;;;;;;;6.63;6.07;;;15.70;99.90;;;;;;5024717;28;20232;-58
2022/07/07 00:37:33;;;;;;;8.17;7.03;;;15.70;99.90;;;;;;5024072;28;20232;-58
2022/07/07 00:40:01;;;;;;;7.17;6.47;;;15.70;99.90;;;;;;5025645;28;20228;-60
2022/07/07 00:42:31;;;;;;;7.00;6.30;;;15.70;99.90;;;;;;5024778;28;20228;-61
2022/07/07 00:44:59;;;;;;;7.90;7.07;;;15.70;99.90;;;;;;5024949;28;20250;-60
2022/07/07 00:47:31;;;;;;;8.43;7.63;;;15.70;99.90;;;;;;5023514;28;20298;-59
2022/07/07 00:50:01;;;;;;;8.07;7.33;;;15.70;99.90;;;;;;5024780;28;20229;-60
2022/07/07 00:52:29;;;;;;;7.83;7.13;;;15.70;99.90;;;;;;5024792;28;20244;-60
2022/07/07 00:54:59;;;;;;;7.67;6.97;;;15.70;99.90;;;;;;5024582;28;20319;-58
2022/07/07 00:57:28;;;;;;;7.87;7.17;;;15.70;99.90;;;;;;5025690;28;20282;-60
2022/07/07 01:00:00;;;;;;;8.77;7.00;;;15.80;99.90;;;;;;5024537;28;20239;-59
2022/07/07 01:02:30;;;;;;;8.03;7.33;;;15.80;99.90;;;;;;5042853;28;20778;-59
2022/07/07 01:05:00;;;;;;;8.33;7.63;;;15.80;99.90;;;;;;5045837;28;20263;-60
2022/07/07 01:07:29;;;;;;;8.63;7.83;;;15.80;99.90;;;;;;5043392;28;20267;-59
2022/07/07 01:09:58;;;;;;;8.70;7.80;;;15.80;99.90;;;;;;5043729;28;20235;-56
2022/07/07 01:12:27;;;;;;;8.20;7.40;;;15.90;99.90;;;;;;5044375;28;20270;-57
2022/07/07 01:14:55;;;;;;;8.07;7.37;;;15.80;99.90;;;;;;5043380;28;20642;-58
2022/07/07 01:17:25;;;;;;;8.90;8.00;;;15.80;99.90;;;;;;5041826;28;20243;-59
2022/07/07 01:19:53;;;;;;;8.00;7.27;;;15.80;99.90;;;;;;5043412;28;20284;-57
2022/07/07 01:22:24;;;;;;;8.50;7.63;;;15.90;99.90;;;;;;5045502;28;20263;-59
2022/07/07 01:24:54;;;;;;;8.60;7.80;;;15.90;99.90;;;;;;5043547;28;20303;-58
2022/07/07 01:27:22;;;;;;;7.60;6.90;;;15.90;99.90;;;;;;5041942;28;20319;-59
2022/07/07 01:29:53;;;;;;;8.10;7.37;;;15.90;99.90;;;;;;5043519;28;20759;-58
2022/07/07 01:32:22;;;;;;;8.03;7.30;;;15.90;99.90;;;;;;5043510;28;20263;-57
2022/07/07 01:34:51;;;;;;;8.77;7.97;;;15.90;99.90;;;;;;5044108;28;20731;-58
2022/07/07 01:37:24;;;;;;;8.93;8.10;;;15.90;99.90;;;;;;5043614;28;20607;-57
2022/07/07 01:39:55;;;;;;;8.73;7.93;;;15.90;99.90;;;;;;5043550;28;20319;-59
2022/07/07 01:42:23;;;;;;;8.53;7.73;;;15.90;99.90;;;;;;5042907;28;20795;-57
2022/07/07 01:44:51;;;;;;;9.07;8.17;;;16.00;99.90;;;;;;5043880;28;20248;-59
2022/07/07 01:47:23;;;;;;;9.33;8.50;;;16.00;99.90;;;;;;5041964;28;20235;-59
2022/07/07 01:49:51;;;;;;;9.03;8.23;;;16.00;99.90;;;;;;5047879;28;20691;-60
2022/07/07 01:52:20;;;;;;;9.40;8.57;;;16.00;99.90;;;;;;5047096;28;20236;-59
2022/07/07 01:54:48;;;;;;;10.70;9.70;;;16.00;99.90;;;;;;5046925;28;20737;-57
2022/07/07 01:57:17;;;;;;;9.50;8.60;;;16.00;99.90;;;;;;5045436;28;20315;-58
2022/07/07 01:59:45;;;;;;;9.67;8.77;;;16.00;99.90;;;;;;5048210;28;20386;-57
2022/07/07 02:02:14;;;;;;;10.70;9.70;;;16.00;99.90;;;;;;5045707;28;20327;-59
2022/07/07 02:04:42;;;;;;;10.13;9.17;;;16.00;99.90;;;;;;5045842;28;20607;-58
2022/07/07 02:07:10;;;;;;;9.37;8.50;;;16.00;99.90;;;;;;5045626;28;20223;-60
2022/07/07 02:09:39;;;;;;;9.77;8.80;;;16.00;99.90;;;;;;5046440;28;20223;-60
2022/07/07 02:12:07;;;;;;;9.70;8.70;;;16.00;99.90;;;;;;5046387;28;20312;-59
2022/07/07 02:14:37;;;;;;;9.30;8.40;;;16.10;99.90;;;;;;5047052;28;20301;-55
2022/07/07 02:17:06;;;;;;;10.20;9.30;;;16.10;99.90;;;;;;5045068;28;20235;-58
2022/07/07 02:19:34;;;;;;;10.63;9.53;;;16.10;99.90;;;;;;5045035;28;20242;-57
2022/07/07 02:22:02;;;;;;;10.27;9.27;;;16.10;99.90;;;;;;5045614;28;20236;-60
2022/07/07 02:24:30;;;;;;;10.63;9.63;;;16.10;99.90;;;;;;5047122;28;20615;-60
2022/07/07 02:26:58;;;;;;;10.97;9.87;;;16.10;99.90;;;;;;5045568;28;20215;-57
2022/07/07 02:29:26;;;;;;;10.80;9.80;;;16.10;99.90;;;;;;5048281;28;20319;-58
2022/07/07 02:31:56;;;;;;;11.80;10.63;;;16.10;99.90;;;;;;5046735;28;20594;-56
2022/07/07 02:34:24;;;;;;;11.37;10.17;;;16.10;99.90;;;;;;5047529;28;20236;-59
2022/07/07 02:36:53;;;;;;;11.53;10.43;;;16.10;99.90;;;;;;5046155;28;20758;-59
2022/07/07 02:39:21;;;;;;;11.00;9.97;;;16.10;99.90;;;;;;5046886;28;20643;-60
2022/07/07 02:41:49;;;;;;;11.30;10.27;;;16.10;99.90;;;;;;5046443;28;20220;-60
2022/07/07 02:44:17;;;;;;;11.33;10.00;;;16.20;99.90;;;;;;5047212;28;20230;-59
2022/07/07 02:46:45;;;;;;;10.90;9.63;;;16.10;99.90;;;;;;5044304;28;20235;-58
2022/07/07 02:49:15;;;;;;;10.97;9.87;;;16.10;99.90;;;;;;5045612;28;20237;-59
2022/07/07 02:51:43;;;;;;;11.40;10.30;;;16.10;99.90;;;;;;5045936;28;20232;-56
2022/07/07 02:54:11;;;;;;;10.80;9.60;;;16.10;99.90;;;;;;5046924;28;20670;-60
2022/07/07 02:56:39;;;;;;;10.33;9.33;;;16.10;99.90;;;;;;5044296;28;20238;-59
2022/07/07 02:59:07;;;;;;;10.40;9.47;;;16.10;99.90;;;;;;5044896;28;20334;-58
2022/07/07 03:01:36;;;;;;;11.57;9.17;;;16.10;99.90;;;;;;5044684;28;20346;-59
2022/07/07 03:04:04;;;;;;;9.23;8.40;;;16.10;99.90;;;;;;5043845;28;20232;-58
2022/07/07 03:06:33;;;;;;;9.83;8.83;;;16.10;99.90;;;;;;5043314;28;20357;-59
2022/07/07 03:09:01;;;;;;;10.23;8.97;;;16.10;99.90;;;;;;5046723;28;20332;-57
2022/07/07 03:11:30;;;;;;;9.77;8.93;;;16.10;99.90;;;;;;5045239;28;20254;-60
2022/07/07 03:13:58;;;;;;;10.10;9.20;;;16.10;99.90;;;;;;5045930;28;20212;-57
2022/07/07 03:16:27;;;;;;;9.27;8.47;;;16.10;99.90;;;;;;5044477;28;20236;-59
2022/07/07 03:18:55;;;;;;;9.70;8.80;;;16.10;99.90;;;;;;5045544;28;20299;-58
2022/07/07 03:21:23;;;;;;;9.37;8.57;;;16.10;99.90;;;;;;5045808;28;20246;-60
2022/07/07 03:23:53;;;;;;;9.40;8.60;;;16.10;99.90;;;;;;5045482;28;20266;-59
2022/07/07 03:26:21;;;;;;;9.33;8.53;;;16.10;99.90;;;;;;5047017;28;20249;-60
2022/07/07 03:28:49;;;;;;;9.87;8.97;;;16.10;99.90;;;;;;5045182;28;20696;-59
2022/07/07 03:31:17;;;;;;;10.40;9.40;;;16.10;99.90;;;;;;5044804;28;20247;-58
2022/07/07 03:33:45;;;;;;;10.63;9.73;;;16.10;99.90;;;;;;5045716;28;20242;-58
2022/07/07 03:36:14;;;;;;;9.70;8.90;;;16.10;99.90;;;;;;5042002;28;20231;-59
2022/07/07 03:38:42;;;;;;;11.87;10.77;;;16.20;99.90;;;;;;5046581;28;21040;-60
2022/07/07 03:41:11;;;;;;;12.97;10.97;;;16.10;99.90;;;;;;5046763;28;20228;-60
2022/07/07 03:43:40;;;;;;;11.57;10.47;;;16.20;99.90;;;;;;5044918;28;20235;-60
2022/07/07 03:46:08;;;;;;;12.07;10.87;;;16.20;99.90;;;;;;5043247;28;20298;-60
2022/07/07 03:48:36;;;;;;;11.27;10.17;;;16.10;99.90;;;;;;5045699;28;20333;-56
2022/07/07 03:51:05;;;;;;;10.87;9.87;;;16.10;99.90;;;;;;5045065;28;20310;-59
2022/07/07 03:53:33;;;;;;;11.37;10.27;;;16.10;99.90;;;;;;5043941;28;20285;-60
2022/07/07 03:56:01;;;;;;;11.57;10.37;;;16.20;99.90;;;;;;5043528;28;20223;-60
2022/07/07 03:58:30;;;;;;;10.87;9.77;;;16.20;99.90;;;;;;5043663;28;20277;-59
2022/07/07 04:00:59;;;;;;;11.37;10.27;;;16.20;99.90;;;;;;5043451;28;20231;-59
2022/07/07 04:03:28;;;;;;;11.20;10.03;;;16.20;99.90;;;;;;5043136;28;20239;-55
2022/07/07 04:05:57;;;;;;;9.17;8.37;;;16.20;99.90;;;;;;5043309;28;20327;-57
2022/07/07 04:08:25;;;;;;;9.33;8.43;;;16.20;99.90;;;;;;5043306;28;20233;-59
2022/07/07 04:10:53;;;;;;;9.03;8.23;;;16.20;99.90;;;;;;5043591;28;20592;-56
2022/07/07 04:13:22;;;;;;;9.23;8.43;;;16.20;99.90;;;;;;5044957;28;20243;-59
2022/07/07 04:15:52;;;;;;;9.83;8.93;;;16.20;99.90;;;;;;5044031;28;20233;-59
2022/07/07 04:18:20;;;;;;;9.40;8.53;;;16.20;99.90;;;;;;5043224;28;20242;-56
2022/07/07 04:20:48;;;;;;;9.07;8.20;;;16.20;99.90;;;;;;5044019;28;20283;-59
2022/07/07 04:23:17;;;;;;;9.13;8.30;;;16.20;99.90;;;;;;5044950;28;20366;-59
2022/07/07 04:25:45;;;;;;;8.07;7.37;;;16.20;99.90;;;;;;5043520;28;20255;-59
2022/07/07 04:28:13;;;;;;;7.63;7.03;;;16.20;99.90;;;;;;5044511;28;20235;-59
2022/07/07 04:30:41;;;;;;;7.67;6.87;;;16.20;99.90;;;;;;5052056;28;20752;-59
2022/07/07 04:33:11;;;;;;;7.37;6.00;;;16.20;99.90;;;;;;5052722;28;20227;-59
2022/07/07 04:35:39;;;;;;;6.53;5.93;;;16.20;99.90;;;;;;5042601;28;20231;-60
2022/07/07 04:38:08;;;;;;;7.93;6.00;;;16.20;99.90;;;;;;5043695;28;20797;-59
2022/07/07 04:40:36;;;;;;;5.43;4.93;;;16.20;99.90;;;;;;5043085;28;20286;-58
2022/07/07 04:43:05;;;;;;;6.47;5.97;;;16.20;99.90;;;;;;5044284;28;20238;-59
2022/07/07 04:45:33;;;;;;;6.23;5.53;;;16.20;99.90;;;;;;5053760;28;20249;-59
2022/07/07 04:48:02;;;;;;;6.30;4.87;;;16.20;99.90;;;;;;5055288;28;20227;-59
2022/07/07 04:50:31;;;;;;;4.80;4.30;;;16.30;99.90;;;;;;5056172;28;20710;-58
2022/07/07 04:52:59;;;;;;;5.23;3.77;;;16.30;99.90;;;;;;5056560;28;20233;-60
2022/07/07 04:55:28;;;;;;;4.40;4.00;;;16.30;99.90;;;;;;5050796;28;20320;-58
2022/07/07 04:57:57;;;;;;;4.57;3.10;;;16.40;99.90;;;;;;5043572;28;20836;-58
2022/07/07 05:00:25;;;;;;;4.60;3.80;;;16.40;99.90;;;;;;5043981;28;20244;-59
2022/07/07 05:02:53;;;;;;;3.80;3.40;;;16.50;99.90;;;;;;5043400;28;20231;-60
2022/07/07 05:05:22;;;;;;;3.60;3.30;;;16.40;99.90;;;;;;5042042;28;20484;-57
2022/07/07 05:07:51;;;;;;;3.50;3.20;;;16.40;99.90;;;;;;5042563;28;20219;-60
2022/07/07 05:10:19;;;;;;;3.10;2.90;;;16.40;99.90;;;;;;5070675;28;20223;-60
2022/07/07 05:12:47;;;;;;;3.70;3.40;;;16.40;99.90;;;;;;5043509;28;20219;-59
2022/07/07 05:15:16;;;;;;;3.10;2.90;;;16.30;99.90;;;;;;5046674;28;20267;-58
2022/07/07 05:17:44;;;;;;;3.43;3.17;;;16.30;99.90;;;;;;5051238;28;20235;-60
2022/07/07 05:20:12;;;;;;;3.30;3.00;;;16.40;99.90;;;;;;5046067;28;20224;-59
2022/07/07 05:22:40;;;;;;;4.57;3.57;;;16.30;99.90;;;;;;5046125;28;20247;-60
2022/07/07 05:25:10;;;;;;;5.17;3.67;;;16.30;99.90;;;;;;5045728;28;20235;-57
2022/07/07 05:27:38;;;;;;;3.83;3.53;;;16.40;99.90;;;;;;5047166;28;20234;-60
2022/07/07 05:30:08;;;;;;;4.10;3.70;;;16.40;99.90;;;;;;5048794;28;20212;-59
2022/07/07 05:32:36;;;;;;;3.10;2.90;;;16.40;99.90;;;;;;5047049;28;20236;-59
2022/07/07 05:35:05;;;;;;;3.40;3.10;;;16.40;99.90;;;;;;5046096;28;20579;-58
2022/07/07 05:37:33;;;;;;;3.77;3.30;;;16.50;99.90;;;;;;5047479;28;20244;-59
2022/07/07 05:40:02;;;;;;;3.27;2.97;;;16.50;99.90;;;;;;5048946;28;20817;-60
2022/07/07 05:42:31;;;;;;;3.47;3.17;;;16.50;99.90;;;;;;5046196;28;20267;-60
2022/07/07 05:44:59;;;;;;;3.17;2.97;;;16.60;99.90;;;;;;5047373;28;20243;-60
2022/07/07 05:47:27;;;;;;;3.27;3.03;;;16.60;99.90;;;;;;5045741;28;20268;-60
2022/07/07 05:49:55;;;;;;;3.97;2.50;;;16.70;99.90;;;;;;5047299;28;20770;-59
2022/07/07 05:52:23;;;;;;;2.47;2.27;;;16.80;99.90;;;;;;5046698;28;20264;-58
2022/07/07 05:54:52;;;;;;;3.00;2.73;;;16.90;99.90;;;;;;5045955;28;20302;-59
2022/07/07 05:57:20;;;;;;;3.47;2.80;;;16.90;99.90;;;;;;5046235;28;21485;-60
2022/07/07 05:59:49;;;;;;;2.67;2.43;;;16.90;99.90;;;;;;5046679;28;20263;-59
2022/07/07 06:02:17;;;;;;;2.37;1.97;;;16.90;99.90;;;;;;5046647;28;20729;-59
2022/07/07 06:04:46;;;;;;;2.23;2.03;;;16.90;99.90;;;;;;5046310;28;20283;-59
2022/07/07 06:07:19;;;;;;;2.43;2.00;;;16.90;99.90;;;;;;5045217;28;20712;-59
2022/07/07 06:09:47;;;;;;;2.83;1.63;;;16.90;99.90;;;;;;5046213;28;20224;-60
2022/07/07 06:12:15;;;;;;;2.83;1.90;;;16.90;99.90;;;;;;5047373;28;20271;-57
2022/07/07 06:14:43;;;;;;;3.30;1.80;;;16.90;99.90;;;;;;5046673;28;20756;-59
2022/07/07 06:17:13;;;;;;;3.40;1.90;;;17.00;99.90;;;;;;5045189;28;20233;-58
2022/07/07 06:19:41;;;;;;;8.03;2.07;;;17.30;99.90;;;;;;5045422;28;20236;-60
2022/07/07 06:22:09;;;;;;;3.33;1.77;;;17.50;99.90;;;;;;5047339;28;20271;-59
2022/07/07 06:24:37;;;;;;;5.77;1.70;;;17.80;99.90;;;;;;5046169;28;20225;-60
2022/07/07 06:27:06;;;;;;;5.30;1.90;;;18.00;99.90;;;;;;5044767;28;20313;-58
2022/07/07 06:29:34;;;;;;;6.07;2.20;;;18.10;99.90;;;;;;5048007;28;20368;-60
2022/07/07 06:32:03;;;;;;;6.67;2.10;;;18.00;99.90;;;;;;5044406;28;20317;-61
2022/07/07 06:34:32;;;;;;;6.03;1.90;;;17.90;99.90;;;;;;5044851;28;20914;-61
2022/07/07 06:37:00;;;;;;;5.03;2.10;;;17.90;99.90;;;;;;5044078;28;20242;-61
2022/07/07 06:39:29;;;;;;;4.23;2.00;;;18.00;99.90;;;;;;5045513;28;20227;-61
2022/07/07 06:41:57;;;;;;;6.50;2.37;;;17.90;99.90;;;;;;5045975;28;20638;-60
2022/07/07 06:44:32;;;;;;;5.30;2.30;;;17.80;99.90;;;;;;5045372;28;20247;-60
2022/07/07 06:47:00;;;;;;;5.43;1.97;;;17.80;99.90;;;;;;5045342;28;20369;-61
2022/07/07 06:49:29;;;;;;;4.70;1.67;;;18.10;99.90;;;;;;5048574;28;20324;-59
2022/07/07 06:51:59;;;;;;;6.97;2.13;;;18.40;99.90;;;;;;5046351;28;20626;-60
2022/07/07 06:54:27;;;;;;;8.17;2.03;;;18.70;99.90;;;;;;5045614;28;20288;-60
2022/07/07 06:56:55;;;;;;;4.17;1.80;;;19.00;99.90;;;;;;5049507;28;20233;-60
2022/07/07 06:59:23;;;;;;;6.60;2.20;;;18.80;99.90;;;;;;5050898;28;20320;-59
2022/07/07 07:01:51;;;;;;;5.53;1.70;;;18.70;99.90;;;;;;5049904;28;20637;-58
2022/07/07 07:04:20;;;;;;;5.07;2.13;;;18.30;99.90;;;;;;5058411;28;20234;-59
2022/07/07 07:06:48;;;;;;;5.90;1.67;;;18.10;99.90;;;;;;5055821;28;20225;-58
2022/07/07 07:09:17;;;;;;;4.03;1.60;;;17.90;99.90;;;;;;5054287;28;20328;-59
2022/07/07 07:11:48;;;;;;;4.73;1.37;;;17.70;99.90;;;;;;5050222;28;20228;-58
2022/07/07 07:14:19;;;;;;;2.83;1.20;;;17.50;99.90;;;;;;5048880;28;20231;-57
2022/07/07 07:16:47;;;;;;;4.00;1.30;;;17.40;99.90;;;;;;5050462;28;20740;-59
2022/07/07 07:19:15;;;;;;;3.17;1.40;;;17.40;99.90;;;;;;5055135;28;20259;-59
2022/07/07 07:21:44;;;;;;;4.67;1.70;;;17.40;99.90;;;;;;5057014;28;20237;-60
2022/07/07 07:24:12;;;;;;;4.70;1.50;;;17.40;99.90;;;;;;5053258;28;20242;-60
2022/07/07 07:26:42;;;;;;;3.00;1.43;;;17.40;99.90;;;;;;5051550;28;20268;-60
2022/07/07 07:29:14;;;;;;;3.07;1.20;;;17.40;99.90;;;;;;5049375;28;20235;-59
2022/07/07 07:31:43;;;;;;;3.60;1.60;;;17.40;99.90;;;;;;5047336;28;20227;-60
2022/07/07 07:34:11;;;;;;;3.97;1.70;;;17.40;99.90;;;;;;5050032;28;20262;-59
2022/07/07 07:36:39;;;;;;;4.73;1.60;;;17.40;99.90;;;;;;5048115;28;20322;-60
2022/07/07 07:39:07;;;;;;;5.17;1.90;;;17.40;99.90;;;;;;5051859;28;20236;-59
2022/07/07 07:41:35;;;;;;;3.73;1.73;;;17.50;99.90;;;;;;5048467;28;20232;-59
2022/07/07 07:44:06;;;;;;;3.77;1.80;;;17.70;99.90;;;;;;5052827;28;21118;-59
2022/07/07 07:46:34;;;;;;;4.37;1.80;;;17.80;99.90;;;;;;5052322;28;20858;-59
2022/07/07 07:49:05;;;;;;;4.27;2.00;;;17.90;99.90;;;;;;5056455;28;20232;-58
2022/07/07 07:51:33;;;;;;;5.63;2.00;;;18.00;99.90;;;;;;5055586;28;20349;-58
2022/07/07 07:54:01;;;;;;;3.77;1.73;;;18.00;99.90;;;;;;5050942;28;20228;-60
2022/07/07 07:56:29;;;;;;;5.10;1.83;;;18.00;99.90;;;;;;5052643;28;20262;-60
2022/07/07 07:58:57;;;;;;;4.40;1.60;;;17.90;99.90;;;;;;5053183;28;20316;-60
2022/07/07 08:01:27;;;;;;;5.33;2.13;;;17.90;99.90;;;;;;5052422;28;20253;-57
2022/07/07 08:03:56;;;;;;;5.17;1.90;;;18.00;99.90;;;;;;5056509;28;20232;-60
2022/07/07 08:06:24;;;;;;;3.93;2.10;;;18.20;99.90;;;;;;5052566;28;20838;-58
2022/07/07 08:08:52;;;;;;;5.23;2.13;;;18.40;99.90;;;;;;5054414;28;20322;-59
2022/07/07 08:11:20;;;;;;;5.73;1.90;;;18.50;99.90;;;;;;5054002;28;20367;-60
2022/07/07 08:13:48;;;;;;;5.07;2.10;;;18.70;99.90;;;;;;5050069;28;20229;-58
2022/07/07 08:16:16;;;;;;;6.47;2.07;;;18.70;99.90;;;;;;5048275;28;20273;-59
2022/07/07 08:18:51;;;;;;;7.07;2.10;;;18.50;99.90;;;;;;5051706;28;20237;-61
2022/07/07 08:21:19;;;;;;;6.90;2.10;;;18.40;99.90;;;;;;5049224;28;20688;-57
2022/07/07 08:23:48;;;;;;;6.03;2.10;;;18.30;99.90;;;;;;5050328;28;20329;-60
2022/07/07 08:26:16;;;;;;;6.93;1.83;;;18.20;99.90;;;;;;5053382;28;20565;-60
2022/07/07 08:28:44;;;;;;;6.87;2.10;;;18.20;99.90;;;;;;5051491;28;20235;-60
2022/07/07 08:31:12;;;;;;;7.30;2.20;;;18.30;99.90;;;;;;5052026;28;20242;-59
2022/07/07 08:33:41;;;;;;;7.20;2.03;;;18.50;99.90;;;;;;5047241;28;20238;-61
2022/07/07 08:36:10;;;;;;;8.47;2.13;;;18.90;99.90;;;;;;5046317;28;20229;-59
2022/07/07 08:38:38;;;;;;;6.57;2.10;;;19.20;99.90;;;;;;5048259;28;20315;-61
2022/07/07 08:41:06;;;;;;;5.33;2.17;;;19.50;99.90;;;;;;5048058;28;20225;-60
2022/07/07 08:43:35;;;;;;;5.90;1.90;;;19.80;99.90;;;;;;5046975;28;20291;-60
2022/07/07 08:46:04;;;;;;;6.10;1.90;;;19.80;99.90;;;;;;5046302;28;20250;-59
2022/07/07 08:48:32;;;;;;;6.33;2.07;;;19.10;99.90;;;;;;5046358;28;20239;-57
2022/07/07 08:51:01;;;;;;;6.23;1.60;;;18.70;99.90;;;;;;5051643;28;20250;-60
2022/07/07 08:53:34;;;;;;;6.07;1.60;;;18.40;99.90;;;;;;5049611;28;20226;-59
2022/07/07 08:56:04;;;;;;;5.43;1.40;;;18.30;99.90;;;;;;5045196;28;20246;-59
2022/07/07 08:58:35;;;;;;;4.40;1.60;;;18.40;99.90;;;;;;5051416;28;20694;-59
2022/07/07 09:01:23;;;;;;;3.13;1.33;;;18.90;99.90;;;;;;5046116;28;20241;-60
2022/07/07 09:03:52;;;;;;;4.93;1.40;;;19.40;99.90;;;;;;5047949;28;20315;-62
2022/07/07 09:06:20;;;;;;;5.17;2.07;;;20.00;99.90;;;;;;5048805;28;20744;-59
2022/07/07 09:08:55;;;;;;;6.13;1.57;;;20.00;99.90;;;;;;5049255;28;20728;-61
2022/07/07 09:11:27;;;;;;;5.00;1.50;;;19.90;99.90;;;;;;5052789;28;20235;-61
2022/07/07 09:14:09;;;;;;;1.87;1.20;;;20.00;99.90;;;;;;5055290;28;20317;-60
2022/07/07 09:16:37;;;;;;;5.77;1.80;;;20.00;99.90;;;;;;5052204;28;20343;-61
2022/07/07 09:19:09;;;;;;;7.73;1.57;;;19.80;99.90;;;;;;5054091;28;20239;-61
2022/07/07 09:21:37;;;;;;;6.67;1.70;;;19.60;99.90;;;;;;5055453;28;20665;-60
2022/07/07 09:24:07;;;;;;;5.50;1.73;;;19.60;99.90;;;;;;5051714;28;20603;-61
2022/07/07 09:26:37;;;;;;;4.63;1.43;;;19.50;99.90;;;;;;5047296;28;20235;-59
2022/07/07 09:29:07;;;;;;;5.83;1.60;;;19.40;99.90;;;;;;5046713;28;20321;-60
2022/07/07 09:31:55;;;;;;;6.43;1.87;;;19.20;99.90;;;;;;5047117;28;20805;-61
2022/07/07 09:34:27;;;;;;;7.10;1.97;;;19.10;99.90;;;;;;5049180;28;20313;-60
2022/07/07 09:39:47;;;;;;;6.40;1.80;;;18.90;99.90;;;;;;5052687;28;20225;-60
2022/07/07 09:42:36;;;;;;;5.20;1.77;;;18.90;99.90;;;;;;5049930;28;20238;-61
2022/07/07 09:45:06;;;;;;;4.43;1.70;;;19.00;99.90;;;;;;5050539;28;20251;-60
2022/07/07 09:47:35;;;;;;;6.33;1.80;;;19.20;99.90;;;;;;5051807;28;20262;-61
2022/07/07 09:50:09;;;;;;;3.50;1.40;;;19.30;99.90;;;;;;5046511;28;20237;-59
2022/07/07 09:52:40;;;;;;;3.63;1.60;;;19.50;99.90;;;;;;5048069;28;20255;-60
2022/07/07 09:55:11;;;;;;;4.80;1.57;;;19.30;99.90;;;;;;5048473;28;20240;-59
2022/07/07 09:57:42;;;;;;;4.33;1.70;;;19.20;99.90;;;;;;5048194;28;20239;-60
2022/07/07 10:00:11;;;;;;;4.40;1.73;;;19.20;99.90;;;;;;5050263;28;20239;-61
2022/07/07 10:02:41;;;;;;;5.20;1.60;;;19.00;99.90;;;;;;5047792;28;20326;-61
2022/07/07 10:05:10;;;;;;;6.83;1.90;;;18.90;99.90;;;;;;5056171;28;20242;-59
2022/07/07 10:07:39;;;;;;;4.80;1.70;;;19.00;99.90;;;;;;5052604;28;20705;-61
2022/07/07 10:10:12;;;;;;;8.60;1.80;;;19.20;99.90;;;;;;5054459;28;20238;-60
2022/07/07 10:12:45;;;;;;;6.67;2.10;;;19.40;99.90;;;;;;5056968;28;20700;-61
2022/07/07 10:15:14;;;;;;;7.20;2.00;;;19.50;99.90;;;;;;5051719;28;20241;-57
2022/07/07 10:17:44;;;;;;;8.13;2.10;;;19.70;99.90;;;;;;5050290;28;20254;-61
2022/07/07 10:20:13;;;;;;;4.73;1.70;;;20.10;99.90;;;;;;5053112;28;20314;-61
2022/07/07 10:22:41;;;;;;;3.90;1.40;;;20.60;99.90;;;;;;5049552;28;20242;-61
2022/07/07 10:25:12;;;;;;;3.93;1.50;;;21.20;99.90;;;;;;5051456;28;20240;-60
2022/07/07 10:27:42;;;;;;;5.23;1.60;;;22.00;99.90;;;;;;5050351;28;20250;-61
2022/07/07 10:30:30;;;;;;;8.83;2.13;;;22.30;99.90;;;;;;5051761;28;20254;-60
2022/07/07 10:32:58;;;;;;;5.30;1.70;;;23.00;99.90;;;;;;5050368;28;20608;-61
2022/07/07 10:35:27;;;;;;;6.03;1.43;;;22.60;99.90;;;;;;5048598;28;20241;-61
2022/07/07 10:37:57;;;;;;;4.50;1.40;;;22.00;99.90;;;;;;5054414;28;20242;-59
2022/07/07 10:40:28;;;;;;;3.87;1.40;;;21.40;99.90;;;;;;5055943;28;20239;-61
2022/07/07 10:43:15;;;;;;;4.53;1.30;;;20.70;99.90;;;;;;5052442;28;20574;-59
2022/07/07 10:45:46;;;;;;;3.20;1.27;;;19.90;99.90;;;;;;5052301;28;20619;-59
2022/07/07 10:48:44;;;;;;;2.57;1.00;;;19.60;99.90;;;;;;5052498;28;20227;-60
2022/07/07 10:51:17;;;;;;;4.60;1.00;;;19.40;99.90;;;;;;5046865;28;20338;-61
2022/07/07 10:54:02;;;;;;;3.60;0.90;;;19.60;99.90;;;;;;5049149;28;20280;-59
2022/07/07 10:57:16;;;;;;;3.40;0.83;;;20.30;99.90;;;;;;5044366;28;20707;-60
2022/07/07 11:00:19;;;;;;;2.10;0.87;;;21.40;99.90;;;;;;5052247;28;20269;-60
2022/07/07 11:02:50;;;;;;;3.60;0.90;;;21.60;99.90;;;;;;5051054;28;20274;-61
2022/07/07 11:05:31;;;;;;;2.87;1.00;;;21.10;99.90;;;;;;5049404;28;20254;-59
2022/07/07 11:08:11;;;;;;;2.17;0.97;;;20.40;99.90;;;;;;5053817;28;20311;-59
2022/07/07 11:10:55;;;;;;;2.87;0.90;;;19.80;99.90;;;;;;5052847;28;20348;-60
2022/07/07 11:13:35;;;;;;;3.67;1.00;;;19.60;99.90;;;;;;5057073;28;20325;-59
2022/07/07 11:16:16;;;;;;;3.30;1.07;;;19.60;99.90;;;;;;5045610;28;20379;-58
2022/07/07 11:18:48;;;;;;;5.03;1.03;;;19.80;99.90;;;;;;5049188;28;20325;-60
2022/07/07 11:21:17;;;;;;;3.43;1.00;;;19.80;99.90;;;;;;5049493;28;20239;-59
2022/07/07 11:23:52;;;;;;;3.50;1.00;;;19.60;99.90;;;;;;5053450;28;20235;-59
2022/07/07 11:26:23;;;;;;;4.27;1.20;;;19.10;99.90;;;;;;5046872;28;20247;-58
2022/07/07 11:28:54;;;;;;;4.10;1.33;;;18.80;99.90;;;;;;5049715;28;20636;-59
2022/07/07 11:31:24;;;;;;;3.67;1.30;;;18.90;99.90;;;;;;5048354;28;20597;-60
2022/07/07 11:33:53;;;;;;;4.33;1.30;;;18.90;99.90;;;;;;5049442;28;20585;-60
2022/07/07 11:36:24;;;;;;;1.90;1.00;;;18.60;99.90;;;;;;5046689;28;20288;-59
2022/07/07 11:38:56;;;;;;;2.03;0.90;;;18.30;99.90;;;;;;5048497;28;20234;-59
2022/07/07 11:41:38;;;;;;;2.43;1.00;;;18.10;99.90;;;;;;5054502;28;20590;-59
2022/07/07 11:44:07;;;;;;;5.10;1.33;;;18.00;99.90;;;;;;5055294;28;20325;-59
2022/07/07 11:46:35;;;;;;;4.07;1.20;;;17.90;99.90;;;;;;5048282;28;20345;-59
2022/07/07 11:49:04;;;;;;;4.20;1.63;;;18.00;99.90;;;;;;5049825;28;20307;-60
2022/07/07 11:51:38;;;;;;;9.77;1.97;;;18.10;99.90;;;;;;5054541;28;20273;-58
2022/07/07 11:54:06;;;;;;;7.27;2.20;;;18.20;99.90;;;;;;5052448;28;20226;-59
2022/07/07 11:56:37;;;;;;;8.93;2.37;;;18.30;99.90;;;;;;5052606;28;20230;-59
2022/07/07 11:59:07;;;;;;;8.00;2.10;;;18.70;99.90;;;;;;5053779;28;20254;-60
2022/07/07 12:01:38;;;;;;;8.77;2.30;;;18.40;99.90;;;;;;5049266;28;20249;-58
2022/07/07 12:04:15;;;;;;;7.97;2.20;;;18.20;99.90;;;;;;5048887;28;20251;-58
2022/07/07 12:06:44;;;;;;;10.33;2.43;;;18.10;99.90;;;;;;5048542;28;20286;-59
2022/07/07 12:09:13;;;;;;;8.43;2.13;;;18.20;99.90;;;;;;5047681;28;20233;-60
2022/07/07 12:11:42;;;;;;;9.23;2.30;;;18.40;99.90;;;;;;5046855;28;20772;-60
2022/07/07 12:14:13;;;;;;;11.60;2.80;;;18.70;99.90;;;;;;5052607;28;20243;-60
2022/07/07 12:16:46;;;;;;;12.80;3.10;;;18.90;99.90;;;;;;5047879;28;20237;-61
2022/07/07 12:19:14;;;;;;;13.83;2.87;;;19.00;99.90;;;;;;5048779;28;20329;-60
2022/07/07 12:21:44;;;;;;;13.00;2.80;;;19.30;99.90;;;;;;5049072;28;20231;-61
2022/07/07 12:24:16;;;;;;;7.70;2.30;;;19.40;99.90;;;;;;5052112;28;20235;-61
2022/07/07 12:26:48;;;;;;;11.30;2.80;;;19.50;99.90;;;;;;5051907;28;20230;-61
2022/07/07 12:29:19;;;;;;;11.97;2.70;;;19.40;99.90;;;;;;5052929;28;20785;-61
2022/07/07 12:31:48;;;;;;;10.80;2.90;;;19.30;99.90;;;;;;5048302;28;20235;-61
2022/07/07 12:34:19;;;;;;;12.73;2.67;;;19.20;99.90;;;;;;5053212;28;20276;-60
2022/07/07 12:36:49;;;;;;;14.03;3.10;;;19.10;99.90;;;;;;5043777;28;20317;-61
2022/07/07 12:39:20;;;;;;;9.90;2.63;;;19.00;99.90;;;;;;5046879;28;20664;-60
2022/07/07 12:41:51;;;;;;;14.33;3.30;;;18.90;99.90;;;;;;5047191;28;20229;-62
2022/07/07 12:44:22;;;;;;;13.27;2.33;;;18.70;99.90;;;;;;5048497;28;20233;-62
2022/07/07 12:47:10;;;;;;;8.17;2.03;;;18.50;99.90;;;;;;5044312;28;20227;-61
2022/07/07 12:49:52;;;;;;;12.50;2.60;;;18.40;99.90;;;;;;5051400;28;20220;-62
2022/07/07 12:52:20;;;;;;;12.63;2.77;;;18.50;99.90;;;;;;5049075;28;20490;-61
2022/07/07 12:54:48;;;;;;;11.07;2.63;;;18.70;99.90;;;;;;5049424;28;20219;-60
2022/07/07 12:57:16;;;;;;;7.67;1.80;;;18.80;99.90;;;;;;5044493;28;20302;-61
2022/07/07 12:59:46;;;;;;;12.20;2.50;;;18.80;99.90;;;;;;5048092;28;20226;-62
2022/07/07 13:02:15;;;;;;;15.10;2.70;;;18.80;99.90;;;;;;5049012;28;20245;-61